Time;durP1;ratioP1;P1;durP2;ratioP2;P2;SDS_P1;SDS_P2;PMS_P1;PMS_P2;Temp;Humidity;BMP_temperature;BMP_pressure;BME280_temperature;BME280_humidity;BME280_pressure;Samples;Min_cycle;Max_cycle;Signal;HPM_P1;HPM_P2
2023/06/10 05:59:53;;;;;;;;;;;17.60;71.70;;;;;;6125591;23;19987;-93
2023/06/10 06:02:54;;;;;;;;;;;17.60;70.80;;;;;;6104463;23;19928;-93
2023/06/10 06:09:00;;;;;;;;;;;;;;;;;;;;;
2023/06/10 06:18:47;;;;;;;;;;;17.50;70.80;;;;;;6058143;23;20273;-96
2023/06/10 06:25:10;;;;;;;;;;;17.50;70.60;;;;;;5954141;24;19958;-94
2023/06/10 06:31:54;;;;;;;;;;;17.40;71.10;;;;;;5973713;23;19966;-94
2023/06/10 06:41:33;;;;;;;;;;;17.40;71.30;;;;;;5925812;24;19923;-93
2023/06/10 07:01:19;;;;;;;;;;;17.60;69.90;;;;;;5963501;23;20316;-94
2023/06/10 07:03:44;;;;;;;;;;;17.60;68.70;;;;;;5987421;23;19922;-93
2023/06/10 07:06:10;;;;;;;;;;;17.50;68.90;;;;;;6067810;23;20379;-93
2023/06/10 07:08:41;;;;;;;;;;;17.50;69.10;;;;;;6117887;23;20328;-93
2023/06/10 07:11:06;;;;;;;;;;;17.50;69.30;;;;;;6077277;23;19978;-92
2023/06/10 07:13:32;;;;;;;;;;;17.50;69.40;;;;;;6099230;23;20237;-92
2023/06/10 07:15:58;;;;;;;;;;;17.50;70.20;;;;;;6100470;23;19928;-92
2023/06/10 07:18:24;;;;;;;;;;;17.60;69.90;;;;;;6094264;23;19936;-94
2023/06/10 07:20:50;;;;;;;;;;;17.70;69.50;;;;;;6103100;23;19920;-94
2023/06/10 07:23:16;;;;;;;;;;;17.80;70.00;;;;;;6101685;23;19924;-94
2023/06/10 07:26:13;;;;;;;;;;;17.80;68.30;;;;;;6081614;23;19921;-96
2023/06/10 07:28:59;;;;;;;;;;;17.80;68.50;;;;;;6140759;23;20280;-96
2023/06/10 07:31:25;;;;;;;;;;;17.80;67.60;;;;;;6107528;23;19921;-95
2023/06/10 07:34:01;;;;;;;;;;;17.80;68.00;;;;;;6087537;23;19942;-96
2023/06/10 07:36:28;;;;;;;;;;;17.80;68.90;;;;;;6067307;23;19927;-95
2023/06/10 07:38:54;;;;;;;;;;;17.80;68.20;;;;;;6101202;23;19921;-96
2023/06/10 07:41:41;;;;;;;;;;;17.90;68.90;;;;;;6110767;23;20320;-93
2023/06/10 07:47:47;;;;;;;;;;;18.00;69.50;;;;;;6152423;22;19916;-96
2023/06/10 07:50:03;;;;;;;;;;;18.20;69.20;;;;;;6095362;23;19925;-96
2023/06/10 07:52:31;;;;;;;;;;;18.30;68.20;;;;;;6100985;23;19975;-96
2023/06/10 07:54:56;;;;;;;;;;;18.20;67.70;;;;;;6137405;23;19939;-96
2023/06/10 07:57:22;;;;;;;;;;;18.20;68.00;;;;;;6140438;23;20024;-95
2023/06/10 07:59:48;;;;;;;;;;;18.20;68.40;;;;;;6160311;23;19921;-95
2023/06/10 08:02:14;;;;;;;;;;;18.20;68.40;;;;;;6159971;23;20354;-95
2023/06/10 08:04:40;;;;;;;;;;;18.30;68.60;;;;;;6112890;23;19920;-96
2023/06/10 08:07:06;;;;;;;;;;;18.40;69.20;;;;;;6113878;23;19922;-96
2023/06/10 08:09:31;;;;;;;;;;;18.50;69.40;;;;;;6115705;23;20336;-94
2023/06/10 08:12:03;;;;;;;;;;;18.60;67.80;;;;;;6112929;23;19927;-96
2023/06/10 08:14:34;;;;;;;;;;;18.60;68.10;;;;;;6136567;23;19920;-96
2023/06/10 08:20:38;;;;;;;;;;;18.50;67.70;;;;;;6132759;23;19932;-94
2023/06/10 08:23:06;;;;;;;;;;;18.50;67.80;;;;;;6132430;23;19931;-94
2023/06/10 08:25:34;;;;;;;;;;;18.50;68.10;;;;;;6159478;23;20390;-92
2023/06/10 08:31:31;;;;;;;;;;;18.60;68.40;;;;;;6107210;23;20282;-92
2023/06/10 08:33:57;;;;;;;;;;;18.70;67.80;;;;;;6108357;23;20302;-80
2023/06/10 08:36:22;;;;;;;;;;;18.70;67.80;;;;;;6160305;23;19920;-82
2023/06/10 08:38:48;;;;;;;;;;;18.70;68.20;;;;;;6160883;23;20239;-81
2023/06/10 08:41:16;;;;;;;;;;;18.80;67.30;;;;;;6161245;23;19921;-80
2023/06/10 08:43:45;;;;;;;;;;;18.80;67.30;;;;;;6159828;23;19990;-80
2023/06/10 08:46:12;;;;;;;;;;;18.80;67.90;;;;;;6160488;23;19920;-82
2023/06/10 08:48:41;;;;;;;;;;;18.90;67.70;;;;;;6158662;23;19921;-80
2023/06/10 08:51:09;;;;;;;;;;;19.00;67.30;;;;;;6160647;23;19999;-80
2023/06/10 08:53:36;;;;;;;;;;;19.10;67.40;;;;;;6159958;23;20286;-82
2023/06/10 08:56:03;;;;;;;;;;;19.10;67.10;;;;;;6160752;23;20002;-80
2023/06/10 08:58:29;;;;;;;;;;;19.10;66.50;;;;;;6185200;23;20026;-80
2023/06/10 09:00:55;;;;;;;;;;;19.10;66.70;;;;;;6160446;23;19959;-82
2023/06/10 09:03:21;;;;;;;;;;;19.20;66.20;;;;;;6135545;23;19920;-80
2023/06/10 09:05:48;;;;;;;;;;;19.20;66.70;;;;;;6136545;23;19963;-81
2023/06/10 09:08:15;;;;;;;;;;;19.20;66.50;;;;;;6158382;23;19952;-81
2023/06/10 09:10:40;;;;;;;;;;;19.30;66.60;;;;;;6160546;23;19928;-80
2023/06/10 09:13:06;;;;;;;;;;;19.40;67.50;;;;;;6109975;23;19940;-81
2023/06/10 09:15:32;;;;;;;;;;;19.50;66.80;;;;;;6161353;23;19927;-80
2023/06/10 09:17:57;;;;;;;;;;;19.60;66.10;;;;;;6109613;23;19920;-82
2023/06/10 09:20:23;;;;;;;;;;;19.60;65.00;;;;;;6160364;23;20361;-81
2023/06/10 09:22:49;;;;;;;;;;;19.70;65.10;;;;;;6159425;23;20331;-81
2023/06/10 09:25:15;;;;;;;;;;;19.70;65.20;;;;;;6160244;23;20352;-80
2023/06/10 09:27:49;;;;;;;;;;;19.70;65.90;;;;;;6158348;23;20007;-81
2023/06/10 09:30:28;;;;;;;;;;;19.70;65.00;;;;;;6160780;23;20324;-86
2023/06/10 09:32:56;;;;;;;;;;;19.80;64.60;;;;;;6159276;23;19924;-83
2023/06/10 09:42:16;;;;;;;;;;;20.10;65.70;;;;;;6126290;23;19922;-88
2023/06/10 09:44:49;;;;;;;;;;;20.30;64.30;;;;;;6136484;23;19999;-88
2023/06/10 09:47:19;;;;;;;;;;;20.30;64.90;;;;;;6132243;23;19943;-87
2023/06/10 09:49:45;;;;;;;;;;;20.40;64.00;;;;;;6160242;23;19920;-88
2023/06/10 09:52:11;;;;;;;;;;;20.50;64.00;;;;;;6133565;23;19926;-87
2023/06/10 09:54:36;;;;;;;;;;;20.50;64.20;;;;;;6136351;23;19921;-88
2023/06/10 09:57:10;;;;;;;;;;;20.60;64.40;;;;;;6134381;23;19920;-87
2023/06/10 09:59:37;;;;;;;;;;;20.60;64.30;;;;;;6134333;23;19959;-87
2023/06/10 10:02:05;;;;;;;;;;;20.70;63.00;;;;;;6134203;23;19928;-88
2023/06/10 10:04:31;;;;;;;;;;;20.80;62.90;;;;;;6134403;23;19928;-88
2023/06/10 10:06:59;;;;;;;;;;;20.90;63.00;;;;;;6110296;23;19921;-88
2023/06/10 10:09:24;;;;;;;;;;;20.90;63.10;;;;;;6096708;23;19975;-88
2023/06/10 10:12:04;;;;;;;;;;;20.90;63.90;;;;;;6135744;23;19924;-90
2023/06/10 10:14:32;;;;;;;;;;;21.00;62.60;;;;;;6134970;23;19924;-88
2023/06/10 10:16:59;;;;;;;;;;;21.10;61.60;;;;;;6134759;23;19971;-88
2023/06/10 10:19:38;;;;;;;;;;;21.10;62.50;;;;;;6132935;23;20331;-88
2023/06/10 10:22:10;;;;;;;;;;;21.10;63.70;;;;;;6135119;23;19928;-88
2023/06/10 10:24:38;;;;;;;;;;;21.10;62.90;;;;;;6134748;23;19927;-89
2023/06/10 10:27:14;;;;;;;;;;;21.20;61.90;;;;;;6122434;23;19993;-90
2023/06/10 10:29:40;;;;;;;;;;;21.20;62.10;;;;;;6136057;23;20283;-88
2023/06/10 10:32:12;;;;;;;;;;;21.20;61.40;;;;;;6133866;23;20243;-88
2023/06/10 10:35:05;;;;;;;;;;;21.20;61.90;;;;;;6135021;23;19936;-88
2023/06/10 10:37:31;;;;;;;;;;;21.30;61.30;;;;;;6133645;23;19936;-88
2023/06/10 10:40:03;;;;;;;;;;;21.30;61.70;;;;;;6111051;23;19920;-90
2023/06/10 10:42:38;;;;;;;;;;;21.30;62.80;;;;;;6118901;23;19926;-90
2023/06/10 10:45:05;;;;;;;;;;;21.50;63.30;;;;;;6135862;23;19924;-88
2023/06/10 10:47:35;;;;;;;;;;;21.50;63.30;;;;;;6135890;23;19967;-89
2023/06/10 10:53:40;;;;;;;;;;;21.70;62.00;;;;;;6137264;23;19926;-88
2023/06/10 10:56:18;;;;;;;;;;;21.80;62.50;;;;;;6147571;23;19919;-90
2023/06/10 11:02:06;;;;;;;;;;;21.90;61.30;;;;;;6122973;23;20304;-87
2023/06/10 11:04:32;;;;;;;;;;;21.90;61.20;;;;;;6076921;23;19921;-88
2023/06/10 11:07:07;;;;;;;;;;;21.90;61.30;;;;;;6076348;23;19943;-90
2023/06/10 11:09:48;;;;;;;;;;;21.90;60.90;;;;;;6086377;23;19927;-89
2023/06/10 11:12:40;;;;;;;;;;;21.90;59.90;;;;;;6078616;23;19944;-88
2023/06/10 11:15:06;;;;;;;;;;;22.00;61.50;;;;;;6077594;23;19925;-88
2023/06/10 11:17:32;;;;;;;;;;;22.00;61.10;;;;;;6074020;23;19921;-87
2023/06/10 11:19:58;;;;;;;;;;;22.00;59.50;;;;;;6077157;23;19921;-85
2023/06/10 11:22:24;;;;;;;;;;;22.00;59.30;;;;;;6148881;23;19944;-85
2023/06/10 11:24:50;;;;;;;;;;;22.00;60.20;;;;;;6077377;23;20332;-84
2023/06/10 11:27:19;;;;;;;;;;;22.10;61.00;;;;;;6163556;23;20018;-84
2023/06/10 11:30:03;;;;;;;;;;;22.10;60.80;;;;;;6191299;23;19924;-83
2023/06/10 11:32:31;;;;;;;;;;;22.20;60.80;;;;;;6165289;23;19920;-84
2023/06/10 11:34:57;;;;;;;;;;;22.40;60.30;;;;;;6191306;23;20235;-85
2023/06/10 11:37:22;;;;;;;;;;;22.50;60.10;;;;;;6191143;23;19942;-84
2023/06/10 11:39:51;;;;;;;;;;;22.60;59.50;;;;;;6191186;23;20331;-84
2023/06/10 11:42:17;;;;;;;;;;;22.70;60.20;;;;;;6166200;23;20216;-84
2023/06/10 11:44:52;;;;;;;;;;;22.80;59.30;;;;;;6191109;23;19926;-84
2023/06/10 11:47:19;;;;;;;;;;;22.80;59.80;;;;;;6189679;23;19920;-83
2023/06/10 11:49:45;;;;;;;;;;;22.80;60.30;;;;;;6190967;23;20376;-86
2023/06/10 11:52:10;;;;;;;;;;;22.90;60.20;;;;;;6189811;23;19956;-84
2023/06/10 11:54:36;;;;;;;;;;;22.90;59.80;;;;;;6191079;23;20327;-84
2023/06/10 11:57:07;;;;;;;;;;;23.00;60.40;;;;;;6189400;23;20389;-84
2023/06/10 11:59:33;;;;;;;;;;;23.10;60.00;;;;;;6191295;23;19991;-84
2023/06/10 12:01:59;;;;;;;;;;;23.30;60.00;;;;;;6190936;23;19981;-83
2023/06/10 12:04:26;;;;;;;;;;;23.30;60.50;;;;;;6190373;23;19926;-84
2023/06/10 12:06:52;;;;;;;;;;;23.40;59.40;;;;;;6189895;23;19916;-84
2023/06/10 12:09:29;;;;;;;;;;;23.40;59.20;;;;;;6165195;23;19920;-84
2023/06/10 12:11:57;;;;;;;;;;;23.30;59.30;;;;;;6167064;23;20232;-83
2023/06/10 12:14:42;;;;;;;;;;;23.30;59.10;;;;;;6189716;23;20076;-84
2023/06/10 12:17:07;;;;;;;;;;;23.30;59.50;;;;;;6188857;23;19920;-84
2023/06/10 12:19:38;;;;;;;;;;;23.50;59.40;;;;;;6190732;23;20398;-84
2023/06/10 12:22:03;;;;;;;;;;;23.50;59.30;;;;;;6189358;23;19924;-84
2023/06/10 12:24:29;;;;;;;;;;;23.60;57.70;;;;;;6190766;23;19962;-83
2023/06/10 12:26:55;;;;;;;;;;;23.60;57.80;;;;;;6190038;23;19923;-84
2023/06/10 12:29:24;;;;;;;;;;;23.60;58.70;;;;;;6189832;23;19939;-84
2023/06/10 12:31:57;;;;;;;;;;;23.60;59.40;;;;;;6166399;23;20258;-83
2023/06/10 12:34:37;;;;;;;;;;;23.60;58.20;;;;;;6190374;23;19920;-84
2023/06/10 12:37:04;;;;;;;;;;;23.60;61.00;;;;;;6165335;23;19935;-85
2023/06/10 12:39:30;;;;;;;;;;;23.60;62.70;;;;;;6165793;23;19927;-85
2023/06/10 12:41:56;;;;;;;;;;;23.60;63.20;;;;;;6165811;23;19920;-83
2023/06/10 12:44:28;;;;;;;;;;;23.60;62.90;;;;;;6164505;23;19970;-84
2023/06/10 12:46:54;;;;;;;;;;;23.60;63.50;;;;;;6165520;23;19935;-84
2023/06/10 12:49:20;;;;;;;;;;;23.60;63.30;;;;;;6164092;23;19991;-83
2023/06/10 12:51:47;;;;;;;;;;;23.50;63.10;;;;;;6166014;23;19970;-84
2023/06/10 12:54:13;;;;;;;;;;;23.50;63.10;;;;;;6189482;23;19920;-86
2023/06/10 12:56:39;;;;;;;;;;;23.50;63.30;;;;;;6164751;23;19916;-84
2023/06/10 12:59:05;;;;;;;;;;;23.60;63.40;;;;;;6139705;23;19926;-84
2023/06/10 13:01:31;;;;;;;;;;;23.60;63.00;;;;;;6165534;23;19920;-85
2023/06/10 13:03:57;;;;;;;;;;;23.50;63.10;;;;;;6189284;23;19954;-84
2023/06/10 13:06:23;;;;;;;;;;;23.40;63.60;;;;;;6164664;23;19920;-85
2023/06/10 13:08:48;;;;;;;;;;;23.50;64.00;;;;;;6163569;23;19927;-83
2023/06/10 13:11:14;;;;;;;;;;;23.40;64.30;;;;;;6165871;23;19928;-84
2023/06/10 13:13:40;;;;;;;;;;;23.40;63.20;;;;;;6164495;23;19927;-84
2023/06/10 13:16:07;;;;;;;;;;;23.40;64.20;;;;;;6165681;23;19920;-86
2023/06/10 13:18:37;;;;;;;;;;;23.40;63.70;;;;;;6163760;23;19973;-85
2023/06/10 13:21:03;;;;;;;;;;;23.40;64.00;;;;;;6190074;23;19935;-84
2023/06/10 13:23:29;;;;;;;;;;;23.50;64.00;;;;;;6164100;23;20293;-84
2023/06/10 13:25:55;;;;;;;;;;;23.60;64.80;;;;;;6166199;23;19926;-85
2023/06/10 13:28:21;;;;;;;;;;;23.60;63.90;;;;;;6163379;23;19920;-83
2023/06/10 13:30:46;;;;;;;;;;;23.60;64.20;;;;;;6165360;23;20357;-83
2023/06/10 13:33:12;;;;;;;;;;;23.60;64.20;;;;;;6187860;23;19920;-87
2023/06/10 13:35:38;;;;;;;;;;;23.60;64.60;;;;;;6165356;23;19998;-84
2023/06/10 13:38:04;;;;;;;;;;;23.60;64.50;;;;;;6189133;23;19974;-84
2023/06/10 13:40:29;;;;;;;;;;;23.60;64.40;;;;;;6165416;23;19919;-84
2023/06/10 13:42:55;;;;;;;;;;;23.60;64.70;;;;;;6163621;23;19974;-84
2023/06/10 13:45:21;;;;;;;;;;;23.60;64.10;;;;;;6166193;23;19952;-87
2023/06/10 13:47:47;;;;;;;;;;;23.60;64.10;;;;;;6163091;23;19936;-84
2023/06/10 13:50:13;;;;;;;;;;;23.50;64.60;;;;;;6165991;23;20067;-84
2023/06/10 13:52:39;;;;;;;;;;;23.50;64.60;;;;;;6163931;23;19920;-85
2023/06/10 13:55:04;;;;;;;;;;;23.50;64.20;;;;;;6190147;23;19927;-85
2023/06/10 13:57:30;;;;;;;;;;;23.50;64.40;;;;;;6138524;23;19998;-83
2023/06/10 13:59:56;;;;;;;;;;;23.60;64.50;;;;;;6165088;23;19943;-84
2023/06/10 14:02:22;;;;;;;;;;;23.60;64.50;;;;;;6164122;23;21956;-83
2023/06/10 14:04:47;;;;;;;;;;;23.60;63.30;;;;;;6189912;23;19966;-85
2023/06/10 14:07:13;;;;;;;;;;;23.80;63.60;;;;;;6162752;23;19924;-84
2023/06/10 14:09:39;;;;;;;;;;;23.80;64.10;;;;;;6165052;23;19920;-83
2023/06/10 14:12:04;;;;;;;;;;;23.90;64.40;;;;;;6164016;23;19926;-85
2023/06/10 14:14:32;;;;;;;;;;;24.00;64.20;;;;;;6165163;23;19999;-84
2023/06/10 14:16:58;;;;;;;;;;;24.00;63.70;;;;;;6164021;23;19928;-84
2023/06/10 14:19:24;;;;;;;;;;;24.20;63.50;;;;;;6139641;23;19952;-84
2023/06/10 14:21:50;;;;;;;;;;;24.20;63.90;;;;;;6190453;23;20193;-83
2023/06/10 14:24:15;;;;;;;;;;;24.40;62.90;;;;;;6188988;23;20231;-83
2023/06/10 14:26:41;;;;;;;;;;;24.30;63.20;;;;;;6189155;23;20327;-85
2023/06/10 14:29:08;;;;;;;;;;;24.40;63.60;;;;;;6164300;23;19920;-85
2023/06/10 14:31:34;;;;;;;;;;;24.40;63.60;;;;;;6165346;23;19924;-83
2023/06/10 14:33:59;;;;;;;;;;;24.50;63.00;;;;;;6189145;23;19927;-83
2023/06/10 14:36:25;;;;;;;;;;;24.50;63.40;;;;;;6164959;23;19916;-86
2023/06/10 14:38:51;;;;;;;;;;;24.60;63.60;;;;;;6142200;23;19966;-83
2023/06/10 14:41:16;;;;;;;;;;;24.60;63.60;;;;;;6191757;23;19920;-84
2023/06/10 14:43:42;;;;;;;;;;;24.60;63.10;;;;;;6166147;23;19991;-85
2023/06/10 14:46:07;;;;;;;;;;;24.70;62.60;;;;;;6166798;23;20238;-87
2023/06/10 14:48:33;;;;;;;;;;;24.60;63.30;;;;;;6164050;23;19924;-83
2023/06/10 14:50:59;;;;;;;;;;;24.60;63.40;;;;;;6192694;23;19969;-83
2023/06/10 14:53:24;;;;;;;;;;;24.60;63.10;;;;;;6190152;23;19920;-84
2023/06/10 14:55:50;;;;;;;;;;;24.60;62.20;;;;;;6166784;23;19920;-84
2023/06/10 14:58:16;;;;;;;;;;;24.60;62.20;;;;;;6165311;23;19920;-84
2023/06/10 15:00:41;;;;;;;;;;;24.60;63.10;;;;;;6167015;23;19927;-83
2023/06/10 15:03:07;;;;;;;;;;;24.60;63.10;;;;;;6165703;23;20335;-84
2023/06/10 15:05:34;;;;;;;;;;;24.70;63.00;;;;;;6167010;23;19927;-85
2023/06/10 15:08:00;;;;;;;;;;;24.80;63.70;;;;;;6164022;23;19920;-85
2023/06/10 15:10:25;;;;;;;;;;;24.90;62.90;;;;;;6167770;23;19927;-85
2023/06/10 15:12:55;;;;;;;;;;;24.80;62.80;;;;;;6165435;23;19919;-85
2023/06/10 15:15:22;;;;;;;;;;;24.70;63.30;;;;;;6167591;23;19943;-83
2023/06/10 15:17:47;;;;;;;;;;;24.80;63.70;;;;;;6189383;23;19982;-84
2023/06/10 15:20:13;;;;;;;;;;;24.90;63.30;;;;;;6215604;23;20390;-84
2023/06/10 15:22:38;;;;;;;;;;;25.00;62.50;;;;;;6165200;23;20315;-84
2023/06/10 15:25:13;;;;;;;;;;;25.00;62.20;;;;;;6166555;23;19967;-88
2023/06/10 15:28:16;;;;;;;;;;;25.00;61.40;;;;;;6137713;23;20004;-90
2023/06/10 15:30:42;;;;;;;;;;;25.00;62.10;;;;;;6133688;23;19951;-90
2023/06/10 15:33:28;;;;;;;;;;;24.90;62.00;;;;;;6148508;23;19943;-89
2023/06/10 15:35:56;;;;;;;;;;;25.00;62.00;;;;;;6167462;23;19924;-88
2023/06/10 15:38:22;;;;;;;;;;;25.00;61.60;;;;;;6165714;23;20316;-89
2023/06/10 15:40:50;;;;;;;;;;;25.10;61.50;;;;;;6142625;23;19923;-89
2023/06/10 15:43:16;;;;;;;;;;;25.10;61.50;;;;;;6133373;23;19947;-87
2023/06/10 15:45:45;;;;;;;;;;;25.10;61.80;;;;;;6166360;23;19919;-89
2023/06/10 15:48:10;;;;;;;;;;;25.10;62.00;;;;;;6142565;23;19951;-88
2023/06/10 15:50:42;;;;;;;;;;;25.00;61.80;;;;;;6122349;23;19943;-89
2023/06/10 15:53:08;;;;;;;;;;;25.10;61.90;;;;;;6158852;23;19921;-88
2023/06/10 15:55:34;;;;;;;;;;;25.20;61.70;;;;;;6160211;23;19959;-89
2023/06/10 16:00:51;;;;;;;;;;;25.20;62.00;;;;;;6161604;23;19920;-88
2023/06/10 16:03:17;;;;;;;;;;;25.20;62.20;;;;;;6134951;23;19927;-87
2023/06/10 16:05:45;;;;;;;;;;;25.00;61.10;;;;;;6137188;23;19920;-90
2023/06/10 16:08:20;;;;;;;;;;;25.00;61.30;;;;;;6137729;23;19927;-89
2023/06/10 16:10:49;;;;;;;;;;;25.10;61.60;;;;;;6161085;23;19920;-89
2023/06/10 16:13:27;;;;;;;;;;;25.20;60.90;;;;;;6158570;23;20205;-88
2023/06/10 16:15:53;;;;;;;;;;;25.20;60.50;;;;;;6137227;23;19927;-92
2023/06/10 16:18:18;;;;;;;;;;;25.10;61.40;;;;;;6159912;23;20243;-90
2023/06/10 16:20:44;;;;;;;;;;;25.00;61.20;;;;;;6160692;23;20350;-87
2023/06/10 16:23:25;;;;;;;;;;;25.00;62.10;;;;;;6159186;23;19920;-89
2023/06/10 16:25:54;;;;;;;;;;;25.00;61.70;;;;;;6137536;23;19925;-89
2023/06/10 16:32:16;;;;;;;;;;;24.90;62.10;;;;;;6156384;23;20283;-94
2023/06/10 16:34:54;;;;;;;;;;;24.70;62.10;;;;;;6070165;23;19928;-89
2023/06/10 16:37:46;;;;;;;;;;;24.50;62.30;;;;;;6048915;23;20250;-88
2023/06/10 16:40:11;;;;;;;;;;;24.40;62.20;;;;;;6047875;23;19926;-88
2023/06/10 16:42:40;;;;;;;;;;;24.40;62.80;;;;;;6046407;23;19921;-89
2023/06/10 16:45:06;;;;;;;;;;;24.40;62.70;;;;;;6071737;23;19921;-88
2023/06/10 16:47:45;;;;;;;;;;;24.30;63.20;;;;;;6071915;23;19965;-89
2023/06/10 16:54:00;;;;;;;;;;;24.40;63.30;;;;;;6066609;23;19921;-88
2023/06/10 16:56:26;;;;;;;;;;;24.20;63.30;;;;;;6042303;23;19921;-89
2023/06/10 16:58:52;;;;;;;;;;;24.20;63.50;;;;;;6040724;23;20292;-89
2023/06/10 17:01:29;;;;;;;;;;;24.10;63.40;;;;;;6041658;23;20022;-90
2023/06/10 17:04:16;;;;;;;;;;;24.00;63.50;;;;;;6041534;23;19952;-90
2023/06/10 17:06:50;;;;;;;;;;;23.90;63.80;;;;;;6095264;23;19917;-89
2023/06/10 17:09:19;;;;;;;;;;;23.80;63.70;;;;;;6123595;23;19921;-87
2023/06/10 17:11:45;;;;;;;;;;;23.60;64.10;;;;;;6125343;23;19949;-90
2023/06/10 17:14:14;;;;;;;;;;;23.60;64.40;;;;;;6099129;23;19921;-87
2023/06/10 17:16:51;;;;;;;;;;;23.60;64.40;;;;;;6099651;23;19917;-91
2023/06/10 17:19:16;;;;;;;;;;;23.50;64.30;;;;;;6076194;23;20348;-87
2023/06/10 17:21:45;;;;;;;;;;;23.40;64.50;;;;;;6119516;23;19959;-88
2023/06/10 17:24:10;;;;;;;;;;;23.30;64.40;;;;;;6110100;23;19924;-88
2023/06/10 17:26:36;;;;;;;;;;;23.10;64.80;;;;;;6134374;23;19974;-91
2023/06/10 17:29:02;;;;;;;;;;;23.10;65.00;;;;;;6134132;23;19928;-88
2023/06/10 17:31:28;;;;;;;;;;;23.00;65.00;;;;;;6135740;23;20039;-87
2023/06/10 17:33:53;;;;;;;;;;;22.90;65.10;;;;;;6109945;23;20170;-87
2023/06/10 17:36:19;;;;;;;;;;;22.80;65.30;;;;;;6135569;23;19927;-90
2023/06/10 17:38:45;;;;;;;;;;;22.80;65.50;;;;;;6135465;23;19927;-89
2023/06/10 17:41:10;;;;;;;;;;;22.70;65.50;;;;;;6135706;23;19924;-87
2023/06/10 17:43:42;;;;;;;;;;;22.60;65.80;;;;;;6134228;23;19995;-90
2023/06/10 17:46:17;;;;;;;;;;;22.60;66.20;;;;;;6110598;23;19921;-88
2023/06/10 17:48:44;;;;;;;;;;;22.50;66.30;;;;;;6162081;23;19949;-90
2023/06/10 17:51:10;;;;;;;;;;;22.50;66.50;;;;;;6140407;23;20008;-87
2023/06/10 17:53:45;;;;;;;;;;;22.30;66.80;;;;;;6139262;23;19970;-89
2023/06/10 17:56:10;;;;;;;;;;;22.20;66.80;;;;;;6165197;23;20358;-91
2023/06/10 17:58:36;;;;;;;;;;;22.20;67.00;;;;;;6110344;23;19919;-87
2023/06/10 18:01:02;;;;;;;;;;;22.10;66.80;;;;;;6164444;23;19920;-88
2023/06/10 18:03:30;;;;;;;;;;;22.00;67.00;;;;;;6138727;23;19927;-88
2023/06/10 18:05:56;;;;;;;;;;;22.00;67.10;;;;;;6140592;23;19920;-87
2023/06/10 18:08:22;;;;;;;;;;;21.90;67.40;;;;;;6138107;23;20330;-88
2023/06/10 18:10:50;;;;;;;;;;;21.90;67.60;;;;;;6141117;23;19919;-89
2023/06/10 18:13:16;;;;;;;;;;;21.90;67.90;;;;;;6132446;23;19995;-87
2023/06/10 18:15:41;;;;;;;;;;;21.70;67.70;;;;;;6165335;23;20235;-87
2023/06/10 18:18:07;;;;;;;;;;;21.70;67.80;;;;;;6162607;23;19920;-86
2023/06/10 18:20:33;;;;;;;;;;;21.60;68.10;;;;;;6165211;23;19927;-86
2023/06/10 18:23:08;;;;;;;;;;;21.60;68.20;;;;;;6163456;23;19995;-87
2023/06/10 18:26:09;;;;;;;;;;;21.50;68.30;;;;;;6165748;23;19946;-90
2023/06/10 18:28:38;;;;;;;;;;;21.50;68.50;;;;;;6027189;23;20000;-90
2023/06/10 18:31:04;;;;;;;;;;;21.50;68.60;;;;;;6160215;23;19924;-89
2023/06/10 18:33:33;;;;;;;;;;;21.40;68.60;;;;;;6138916;23;20394;-89
2023/06/10 18:35:58;;;;;;;;;;;21.40;68.60;;;;;;6141384;23;19919;-84
2023/06/10 18:38:24;;;;;;;;;;;21.30;68.70;;;;;;6164363;23;20409;-85
2023/06/10 18:40:50;;;;;;;;;;;21.30;68.90;;;;;;6164977;23;19974;-88
2023/06/10 18:43:15;;;;;;;;;;;21.30;69.00;;;;;;6139570;23;19927;-86
2023/06/10 18:45:41;;;;;;;;;;;21.10;68.90;;;;;;6164893;23;19924;-85
2023/06/10 18:48:07;;;;;;;;;;;21.10;69.10;;;;;;6162062;23;20243;-85
2023/06/10 18:50:32;;;;;;;;;;;21.00;69.30;;;;;;6189408;23;19919;-87
2023/06/10 18:52:58;;;;;;;;;;;21.00;69.30;;;;;;6163142;23;20405;-85
2023/06/10 18:55:24;;;;;;;;;;;20.90;69.30;;;;;;6140145;23;19924;-85
2023/06/10 18:57:49;;;;;;;;;;;20.80;69.60;;;;;;6162501;23;19995;-84
2023/06/10 19:00:15;;;;;;;;;;;20.70;69.60;;;;;;6164568;23;19942;-84
2023/06/10 19:02:41;;;;;;;;;;;20.60;69.80;;;;;;6188533;23;19927;-84
2023/06/10 19:05:09;;;;;;;;;;;20.50;69.80;;;;;;6164927;23;19955;-85
2023/06/10 19:07:35;;;;;;;;;;;20.50;69.70;;;;;;6162607;23;19924;-84
2023/06/10 19:10:00;;;;;;;;;;;20.50;70.10;;;;;;6140269;23;20271;-84
2023/06/10 19:12:26;;;;;;;;;;;20.30;70.40;;;;;;6163096;23;20373;-85
2023/06/10 19:14:52;;;;;;;;;;;20.30;70.40;;;;;;6188897;23;19927;-85
2023/06/10 19:17:18;;;;;;;;;;;20.10;70.70;;;;;;6162108;23;19987;-86
2023/06/10 19:19:43;;;;;;;;;;;20.00;70.70;;;;;;6139792;23;19927;-85
2023/06/10 19:22:09;;;;;;;;;;;20.00;70.80;;;;;;6187895;23;19920;-86
2023/06/10 19:24:35;;;;;;;;;;;19.90;70.90;;;;;;6190442;23;19920;-84
2023/06/10 19:27:00;;;;;;;;;;;19.80;71.20;;;;;;6165560;23;19942;-86
2023/06/10 19:29:26;;;;;;;;;;;19.70;71.20;;;;;;6140850;23;19942;-85
2023/06/10 19:31:51;;;;;;;;;;;19.70;71.10;;;;;;6141531;23;20323;-84
2023/06/10 19:34:17;;;;;;;;;;;19.60;71.30;;;;;;6165045;23;19920;-85
2023/06/10 19:36:43;;;;;;;;;;;19.50;71.70;;;;;;6141178;23;19920;-86
2023/06/10 19:39:09;;;;;;;;;;;19.50;71.70;;;;;;6165267;23;20234;-85
2023/06/10 19:41:34;;;;;;;;;;;19.50;71.50;;;;;;6166461;23;19931;-83
2023/06/10 19:44:00;;;;;;;;;;;19.40;71.80;;;;;;6189454;23;19920;-84
2023/06/10 19:46:25;;;;;;;;;;;19.30;71.90;;;;;;6165557;23;20310;-87
2023/06/10 19:48:51;;;;;;;;;;;19.30;72.20;;;;;;6188721;23;19966;-85
2023/06/10 19:51:20;;;;;;;;;;;19.20;72.20;;;;;;6165888;23;19926;-85
2023/06/10 19:53:46;;;;;;;;;;;19.10;72.60;;;;;;6140813;23;19978;-84
2023/06/10 19:56:18;;;;;;;;;;;19.00;72.50;;;;;;6190484;23;19916;-86
2023/06/10 19:58:50;;;;;;;;;;;19.00;72.40;;;;;;6189087;23;20081;-84
2023/06/10 20:01:16;;;;;;;;;;;18.90;72.60;;;;;;6190671;23;19920;-84
2023/06/10 20:03:41;;;;;;;;;;;18.80;72.90;;;;;;6165174;23;19955;-85
2023/06/10 20:06:08;;;;;;;;;;;18.80;72.80;;;;;;6191481;23;19920;-85
2023/06/10 20:08:34;;;;;;;;;;;18.70;72.40;;;;;;6164018;23;19996;-85
2023/06/10 20:10:59;;;;;;;;;;;18.70;72.70;;;;;;6191248;23;19951;-85
2023/06/10 20:13:25;;;;;;;;;;;18.60;72.70;;;;;;6165038;23;19924;-84
2023/06/10 20:15:51;;;;;;;;;;;18.50;73.20;;;;;;6140391;23;20251;-87
2023/06/10 20:18:16;;;;;;;;;;;18.50;73.20;;;;;;6163348;23;19967;-84
2023/06/10 20:20:42;;;;;;;;;;;18.40;73.00;;;;;;6141376;23;19920;-85
2023/06/10 20:23:08;;;;;;;;;;;18.30;73.20;;;;;;6164176;23;19954;-84
2023/06/10 20:25:34;;;;;;;;;;;18.30;73.10;;;;;;6190262;23;19999;-85
2023/06/10 20:28:00;;;;;;;;;;;18.20;73.30;;;;;;6139204;23;19920;-86
2023/06/10 20:30:26;;;;;;;;;;;18.20;73.50;;;;;;6165895;23;20006;-85
2023/06/10 20:32:52;;;;;;;;;;;18.10;73.20;;;;;;6164413;23;19920;-85
2023/06/10 20:35:18;;;;;;;;;;;18.10;73.40;;;;;;6165692;23;19920;-85
2023/06/10 20:37:45;;;;;;;;;;;18.10;73.70;;;;;;6189551;23;19959;-85
2023/06/10 20:40:12;;;;;;;;;;;18.00;74.00;;;;;;6165322;23;19920;-84
2023/06/10 20:42:38;;;;;;;;;;;18.00;73.90;;;;;;6165028;23;19920;-83
2023/06/10 20:45:04;;;;;;;;;;;18.00;73.80;;;;;;6165617;23;20251;-89
2023/06/10 20:47:30;;;;;;;;;;;17.90;74.20;;;;;;6187704;23;19920;-85
2023/06/10 20:49:55;;;;;;;;;;;17.80;74.20;;;;;;6164861;23;19927;-84
2023/06/10 20:52:21;;;;;;;;;;;17.80;74.50;;;;;;6165066;23;19995;-83
2023/06/10 20:54:46;;;;;;;;;;;17.80;74.40;;;;;;6190487;23;20006;-83
2023/06/10 20:57:12;;;;;;;;;;;17.80;74.40;;;;;;6163772;23;19919;-84
2023/06/10 20:59:37;;;;;;;;;;;17.70;74.40;;;;;;6165370;23;19920;-84
2023/06/10 21:02:03;;;;;;;;;;;17.70;74.50;;;;;;6163902;23;19934;-85
2023/06/10 21:04:29;;;;;;;;;;;17.60;74.60;;;;;;6140457;23;19920;-84
2023/06/10 21:06:54;;;;;;;;;;;17.60;74.70;;;;;;6189535;23;19923;-85
2023/06/10 21:09:20;;;;;;;;;;;17.60;74.60;;;;;;6188708;23;19920;-84
2023/06/10 21:11:46;;;;;;;;;;;17.50;74.70;;;;;;6165652;23;19970;-84
2023/06/10 21:14:11;;;;;;;;;;;17.50;75.00;;;;;;6140180;23;19927;-84
2023/06/10 21:16:38;;;;;;;;;;;17.50;74.70;;;;;;6165302;23;19916;-84
2023/06/10 21:19:04;;;;;;;;;;;17.50;74.80;;;;;;6189019;23;20383;-83
2023/06/10 21:21:29;;;;;;;;;;;17.40;74.90;;;;;;6189977;23;20015;-83
2023/06/10 21:23:55;;;;;;;;;;;17.40;75.00;;;;;;6164506;23;19920;-80
2023/06/10 21:26:21;;;;;;;;;;;17.40;74.80;;;;;;6189790;23;19970;-82
2023/06/10 21:28:46;;;;;;;;;;;17.40;75.00;;;;;;6163987;23;20242;-80
2023/06/10 21:31:12;;;;;;;;;;;17.40;75.50;;;;;;6165404;23;19970;-81
2023/06/10 21:33:38;;;;;;;;;;;17.30;75.50;;;;;;6164976;23;19919;-81
2023/06/10 21:36:03;;;;;;;;;;;17.40;75.30;;;;;;6165055;23;19951;-83
2023/06/10 21:38:29;;;;;;;;;;;17.30;75.30;;;;;;6140021;23;19920;-86
2023/06/10 21:40:55;;;;;;;;;;;17.30;75.10;;;;;;6190131;23;19966;-85